Time;durP1;ratioP1;P1;durP2;ratioP2;P2;SDS_P1;SDS_P2;PMS_P1;PMS_P2;Temp;Humidity;BMP_temperature;BMP_pressure;BME280_temperature;BME280_humidity;BME280_pressure;Samples;Min_cycle;Max_cycle;Signal;HPM_P1;HPM_P2
2023/12/15 00:01:38;;;;;;;21.80;15.25;;;;;;;6.38;100.00;102717.91;5041008;28;20272;-74
2023/12/15 00:04:04;;;;;;;29.23;16.77;;;;;;;6.36;100.00;102720.50;5054004;28;20029;-74
2023/12/15 00:06:29;;;;;;;26.77;17.42;;;;;;;6.37;100.00;102722.25;5035845;28;20047;-74
2023/12/15 00:08:54;;;;;;;21.90;15.38;;;;;;;6.38;100.00;102716.16;5035886;28;20033;-74
2023/12/15 00:11:20;;;;;;;30.25;18.13;;;;;;;6.38;100.00;102720.50;5035689;28;20032;-74
2023/12/15 00:13:45;;;;;;;28.20;16.95;;;;;;;6.39;100.00;102722.25;5035790;28;20037;-74
2023/12/15 00:16:10;;;;;;;26.20;17.70;;;;;;;6.37;100.00;102726.56;5035440;28;20426;-74
2023/12/15 00:18:36;;;;;;;24.48;16.80;;;;;;;6.38;100.00;102736.13;5035212;28;20256;-74
2023/12/15 00:21:02;;;;;;;39.88;18.80;;;;;;;6.36;100.00;102749.13;5035516;28;20355;-74
2023/12/15 00:23:27;;;;;;;31.42;18.98;;;;;;;6.38;100.00;102752.59;5035466;28;20103;-74
2023/12/15 00:25:52;;;;;;;33.63;19.67;;;;;;;6.37;100.00;102758.69;5036135;28;20124;-74
2023/12/15 00:28:18;;;;;;;32.67;19.02;;;;;;;6.40;100.00;102765.63;5035589;28;20029;-74
2023/12/15 00:30:43;;;;;;;39.25;19.88;;;;;;;6.38;100.00;102768.22;5035143;28;20060;-74
2023/12/15 00:33:08;;;;;;;39.55;20.45;;;;;;;6.37;100.00;102768.19;5035509;28;20041;-74
2023/12/15 00:35:34;;;;;;;33.92;18.77;;;;;;;6.39;100.00;102758.69;5035626;28;20037;-74
2023/12/15 00:37:59;;;;;;;34.67;19.17;;;;;;;6.42;100.00;102756.09;5035321;28;20285;-74
2023/12/15 00:40:24;;;;;;;38.38;19.25;;;;;;;6.41;100.00;102747.44;5035726;28;20737;-74
2023/12/15 00:42:50;;;;;;;39.67;19.73;;;;;;;6.43;100.00;102744.84;5035462;28;20344;-74
2023/12/15 00:45:15;;;;;;;30.95;18.60;;;;;;;6.42;100.00;102749.19;5035177;28;20039;-74
2023/12/15 00:47:40;;;;;;;35.50;19.98;;;;;;;6.42;100.00;102750.88;5035398;28;20037;-74
2023/12/15 00:50:07;;;;;;;36.65;20.13;;;;;;;6.42;100.00;102756.09;5017134;28;20032;-74
2023/12/15 00:52:32;;;;;;;34.30;19.90;;;;;;;6.41;100.00;102755.22;5035137;28;20394;-74
2023/12/15 00:54:57;;;;;;;31.45;18.45;;;;;;;6.42;100.00;102756.09;5034781;28;20338;-74
2023/12/15 00:57:23;;;;;;;27.80;18.27;;;;;;;6.45;100.00;102763.94;5035316;28;20329;-74
2023/12/15 00:59:48;;;;;;;32.60;18.88;;;;;;;6.46;100.00;102766.56;5017206;28;20033;-74
2023/12/15 01:02:14;;;;;;;38.53;20.40;;;;;;;6.46;100.00;102763.94;5035162;28;20080;-74
2023/12/15 01:04:39;;;;;;;38.65;20.08;;;;;;;6.45;100.00;102774.34;5034655;28;20082;-74
2023/12/15 01:07:04;;;;;;;31.23;18.80;;;;;;;6.47;100.00;102772.63;5033791;28;20302;-74
2023/12/15 01:09:30;;;;;;;27.95;17.35;;;;;;;6.47;100.00;102770.03;5034490;28;20037;-74
2023/12/15 01:11:55;;;;;;;37.53;19.00;;;;;;;6.47;100.00;102770.03;5034931;28;20041;-74
2023/12/15 01:14:21;;;;;;;41.60;19.05;;;;;;;6.47;100.00;102768.28;5034991;28;20037;-74
2023/12/15 01:16:47;;;;;;;31.27;19.42;;;;;;;6.46;100.00;102766.56;5034394;28;20041;-74
2023/12/15 01:19:14;;;;;;;33.67;18.55;;;;;;;6.47;100.00;102768.28;5034852;28;20040;-74
2023/12/15 01:21:39;;;;;;;41.13;20.15;;;;;;;6.46;100.00;102782.16;5034007;28;20209;-74
2023/12/15 01:24:05;;;;;;;32.70;18.08;;;;;;;6.45;100.00;102775.22;5033876;28;20048;-74
2023/12/15 01:26:30;;;;;;;30.05;18.65;;;;;;;6.46;100.00;102774.38;5032834;28;20116;-74
2023/12/15 01:28:56;;;;;;;34.65;19.35;;;;;;;6.47;100.00;102770.03;5033403;28;20163;-74
2023/12/15 01:31:21;;;;;;;39.30;20.73;;;;;;;6.44;100.00;102770.88;5033374;28;20063;-74
2023/12/15 01:33:47;;;;;;;43.42;19.95;;;;;;;6.44;100.00;102781.28;5034171;28;20084;-74
2023/12/15 01:36:13;;;;;;;33.38;18.63;;;;;;;6.48;100.00;102790.00;5033360;28;20037;-74
2023/12/15 01:38:38;;;;;;;36.55;19.63;;;;;;;6.47;100.00;102788.25;5033628;28;20258;-74
2023/12/15 01:41:04;;;;;;;35.42;17.88;;;;;;;6.51;100.00;102780.47;5033868;28;20037;-74
2023/12/15 01:43:29;;;;;;;28.75;17.55;;;;;;;6.52;100.00;102782.19;5033543;28;20068;-74
2023/12/15 01:45:55;;;;;;;31.45;17.30;;;;;;;6.53;100.00;102794.38;5033327;28;20280;-74
2023/12/15 01:48:22;;;;;;;30.23;16.73;;;;;;;6.56;100.00;102795.25;5033266;28;20064;-74
2023/12/15 01:50:47;;;;;;;36.05;17.70;;;;;;;6.55;100.00;102802.19;5033908;28;20030;-74
2023/12/15 01:53:13;;;;;;;35.70;17.20;;;;;;;6.55;100.00;102799.59;5015331;28;20038;-74
2023/12/15 01:55:38;;;;;;;27.80;16.45;;;;;;;6.54;100.00;102813.47;5033478;28;20068;-74
2023/12/15 01:58:03;;;;;;;26.00;15.98;;;;;;;6.54;100.00;102818.66;5033813;28;20103;-74
2023/12/15 02:00:29;;;;;;;26.13;15.80;;;;;;;6.54;100.00;102826.47;5033872;28;20281;-74
2023/12/15 02:02:54;;;;;;;34.75;17.10;;;;;;;6.51;100.00;102826.44;5034250;28;20079;-74
2023/12/15 02:05:20;;;;;;;32.15;16.85;;;;;;;6.50;100.00;102829.94;5034253;28;20037;-74
2023/12/15 02:07:45;;;;;;;28.30;15.20;;;;;;;6.52;100.00;102849.03;5034182;28;20100;-74
2023/12/15 02:10:10;;;;;;;23.48;15.00;;;;;;;6.54;100.00;102862.91;5034167;28;20048;-74
2023/12/15 02:12:36;;;;;;;27.15;16.92;;;;;;;6.54;100.00;102861.19;5034199;28;20044;-74
2023/12/15 02:15:01;;;;;;;28.50;16.63;;;;;;;6.52;100.00;102864.66;5034300;28;20140;-74
2023/12/15 02:17:26;;;;;;;37.58;16.50;;;;;;;6.51;100.00;102873.31;5033687;28;20368;-74
2023/12/15 02:19:52;;;;;;;39.60;17.15;;;;;;;6.50;100.00;102877.63;5034363;28;20041;-74
2023/12/15 02:22:30;;;;;;;35.35;17.00;;;;;;;6.54;100.00;102878.53;5032701;28;20451;-74
2023/12/15 02:24:55;;;;;;;33.55;16.35;;;;;;;6.54;100.00;102881.16;5033813;28;20057;-74
2023/12/15 02:27:20;;;;;;;28.35;15.10;;;;;;;6.54;100.00;102883.75;5033592;28;20072;-74
2023/12/15 02:29:46;;;;;;;31.15;15.02;;;;;;;6.56;100.00;102882.03;5034018;28;20063;-74
2023/12/15 02:32:11;;;;;;;36.35;15.60;;;;;;;6.53;100.00;102880.28;5033544;28;20087;-74
2023/12/15 02:34:36;;;;;;;37.80;16.00;;;;;;;6.52;100.00;102888.94;5015935;28;20041;-74
2023/12/15 02:37:02;;;;;;;35.97;15.20;;;;;;;6.51;100.00;102895.03;5034043;28;20045;-74
2023/12/15 02:39:27;;;;;;;32.85;14.40;;;;;;;6.52;100.00;102890.69;5033228;28;20037;-73
2023/12/15 02:41:52;;;;;;;23.77;13.65;;;;;;;6.55;100.00;102895.91;5033982;28;20033;-73
2023/12/15 02:44:18;;;;;;;34.83;15.02;;;;;;;6.56;100.00;102894.19;5033284;28;20033;-74
2023/12/15 02:46:43;;;;;;;24.15;13.93;;;;;;;6.58;100.00;102895.94;5033312;28;20383;-74
2023/12/15 02:49:08;;;;;;;32.13;13.07;;;;;;;6.59;100.00;102902.03;5033557;28;20107;-74
2023/12/15 02:51:34;;;;;;;27.05;13.68;;;;;;;6.59;100.00;102913.31;5033462;28;20207;-74
2023/12/15 02:54:00;;;;;;;24.15;13.13;;;;;;;6.59;100.00;102912.44;5033130;28;20040;-73
2023/12/15 02:56:26;;;;;;;30.60;14.05;;;;;;;6.60;100.00;102908.97;5033606;28;20079;-73
2023/12/15 02:58:52;;;;;;;30.75;13.57;;;;;;;6.59;100.00;102910.69;5033701;28;20036;-74
2023/12/15 03:01:18;;;;;;;24.08;13.48;;;;;;;6.61;100.00;102911.59;5033364;28;20502;-74
2023/12/15 03:03:43;;;;;;;22.17;13.40;;;;;;;6.62;100.00;102918.56;5033225;28;20037;-74
2023/12/15 03:06:08;;;;;;;25.15;13.13;;;;;;;6.61;100.00;102922.00;5035263;28;20341;-74
2023/12/15 03:08:34;;;;;;;24.92;12.93;;;;;;;6.63;100.00;102919.41;5033056;28;20033;-74
2023/12/15 03:10:59;;;;;;;24.85;12.63;;;;;;;6.63;100.00;102922.88;5033240;28;20355;-74
2023/12/15 03:13:25;;;;;;;23.52;12.77;;;;;;;6.64;100.00;102924.63;5033399;28;20068;-74
2023/12/15 03:15:51;;;;;;;28.92;13.55;;;;;;;6.65;100.00;102928.09;5033180;28;20057;-74
2023/12/15 03:18:17;;;;;;;29.08;12.30;;;;;;;6.64;100.00;102931.56;5034143;28;20268;-74
2023/12/15 03:20:44;;;;;;;28.60;14.02;;;;;;;6.63;100.00;102932.44;5032511;28;20037;-74
2023/12/15 03:23:09;;;;;;;29.15;12.88;;;;;;;6.61;100.00;102941.97;5033225;28;20315;-74
2023/12/15 03:25:34;;;;;;;30.15;13.00;;;;;;;6.58;100.00;102948.00;5032936;28;20037;-74
2023/12/15 03:28:00;;;;;;;27.25;12.95;;;;;;;6.58;100.00;102941.94;5033608;28;20228;-73
2023/12/15 03:30:25;;;;;;;34.45;13.82;;;;;;;6.55;100.00;102937.56;5032115;28;20037;-73
2023/12/15 03:32:51;;;;;;;31.17;13.43;;;;;;;6.57;100.00;102935.84;5033803;28;20037;-74
2023/12/15 03:35:16;;;;;;;29.50;12.57;;;;;;;6.60;100.00;102953.22;5035476;28;20372;-74
2023/12/15 03:37:42;;;;;;;23.42;12.48;;;;;;;6.62;100.00;102954.09;5018471;28;20045;-74
2023/12/15 03:40:07;;;;;;;21.63;11.45;;;;;;;6.65;100.00;102954.16;5036859;28;20352;-74
2023/12/15 03:42:33;;;;;;;26.60;12.43;;;;;;;6.66;100.00;102958.50;5036708;28;20063;-74
2023/12/15 03:44:58;;;;;;;17.25;11.30;;;;;;;6.67;100.00;102953.28;5036523;28;20033;-74
2023/12/15 03:47:23;;;;;;;31.63;13.00;;;;;;;6.66;100.00;102954.16;5037176;28;20099;-74
2023/12/15 03:49:49;;;;;;;24.45;11.90;;;;;;;6.66;100.00;102961.97;5036657;28;20304;-74
2023/12/15 03:52:14;;;;;;;19.05;11.20;;;;;;;6.68;100.00;102962.84;5036523;28;20391;-74
2023/12/15 03:54:39;;;;;;;19.58;10.98;;;;;;;6.67;100.00;102965.44;5035859;28;20041;-74
2023/12/15 03:57:05;;;;;;;19.60;10.73;;;;;;;6.69;100.00;102967.22;5036352;28;20033;-74
2023/12/15 03:59:30;;;;;;;22.20;11.73;;;;;;;6.65;100.00;102970.63;5036378;28;20195;-74
2023/12/15 04:01:56;;;;;;;26.55;11.55;;;;;;;6.66;100.00;102974.13;5036047;28;20063;-73
2023/12/15 04:04:21;;;;;;;34.60;11.82;;;;;;;6.66;100.00;102980.22;5036238;28;20041;-73
2023/12/15 04:06:47;;;;;;;25.35;11.25;;;;;;;6.67;100.00;102981.06;5035954;28;20179;-74
2023/12/15 04:09:12;;;;;;;24.08;10.77;;;;;;;6.66;100.00;102989.75;5035960;28;20042;-74
2023/12/15 04:11:38;;;;;;;25.00;11.32;;;;;;;6.68;100.00;102993.25;5035966;28;20069;-74
2023/12/15 04:14:04;;;;;;;26.42;12.07;;;;;;;6.67;100.00;102994.09;5036483;28;20025;-74
2023/12/15 04:16:30;;;;;;;22.35;11.38;;;;;;;6.70;100.00;102994.13;5035468;28;20108;-74
2023/12/15 04:18:55;;;;;;;14.77;10.35;;;;;;;6.72;100.00;102993.28;5036045;28;20041;-74
2023/12/15 04:21:21;;;;;;;16.42;9.68;;;;;;;6.73;100.00;102997.63;5035403;28;20033;-74
2023/12/15 04:23:46;;;;;;;13.85;9.65;;;;;;;6.70;100.00;102995.00;5036143;28;20047;-74
2023/12/15 04:26:12;;;;;;;19.30;9.48;;;;;;;6.72;100.00;102995.88;5036505;28;20025;-74
2023/12/15 04:28:37;;;;;;;14.10;9.27;;;;;;;6.73;100.00;102997.63;5035973;28;20037;-74
2023/12/15 04:31:03;;;;;;;15.80;9.18;;;;;;;6.72;100.00;102998.47;5035766;28;20221;-74
2023/12/15 04:33:28;;;;;;;13.07;8.10;;;;;;;6.75;100.00;103001.97;5035830;28;20104;-74
2023/12/15 04:35:53;;;;;;;23.85;10.68;;;;;;;6.74;100.00;103006.31;5036000;28;20025;-74
2023/12/15 04:38:19;;;;;;;16.90;9.68;;;;;;;6.77;100.00;103014.16;5035317;28;20032;-74
2023/12/15 04:40:44;;;;;;;32.38;11.23;;;;;;;6.75;100.00;103010.69;5036002;28;20333;-74
2023/12/15 04:43:10;;;;;;;24.13;9.77;;;;;;;6.75;100.00;103007.19;5035422;28;20037;-74
2023/12/15 04:45:35;;;;;;;17.02;8.57;;;;;;;6.75;100.00;102997.66;5034371;28;20091;-74
2023/12/15 04:48:00;;;;;;;13.38;8.63;;;;;;;6.78;100.00;103008.06;5035029;28;20283;-74
2023/12/15 04:50:26;;;;;;;16.17;8.25;;;;;;;6.79;100.00;103019.41;5035870;28;20034;-74
2023/12/15 04:52:51;;;;;;;16.95;9.93;;;;;;;6.77;100.00;103031.50;5035462;28;20100;-74
2023/12/15 04:55:16;;;;;;;15.68;8.35;;;;;;;6.77;100.00;103023.69;5035404;28;20040;-74
2023/12/15 04:57:42;;;;;;;12.55;8.00;;;;;;;6.79;100.00;103027.22;5034682;28;20065;-74
2023/12/15 05:00:08;;;;;;;15.02;9.35;;;;;;;6.80;100.00;103028.94;5035555;28;20052;-74
2023/12/15 05:02:33;;;;;;;23.42;9.25;;;;;;;6.79;100.00;103032.41;5034413;28;20104;-74
2023/12/15 05:04:58;;;;;;;14.98;7.82;;;;;;;6.79;100.00;103030.69;5036628;28;20044;-74
2023/12/15 05:07:24;;;;;;;11.68;7.10;;;;;;;6.82;100.00;103037.63;5035318;28;20052;-74
2023/12/15 05:09:49;;;;;;;16.52;8.05;;;;;;;6.83;100.00;103048.06;5035075;28;20025;-74
2023/12/15 05:12:14;;;;;;;17.42;8.25;;;;;;;6.83;100.00;103044.59;5035034;28;20041;-74
2023/12/15 05:14:40;;;;;;;11.73;7.45;;;;;;;6.83;100.00;103040.25;5035234;28;20059;-74
2023/12/15 05:17:05;;;;;;;9.77;7.10;;;;;;;6.84;100.00;103047.22;5035276;28;20382;-74
2023/12/15 05:19:31;;;;;;;13.30;7.60;;;;;;;6.87;100.00;103059.41;5034481;28;20319;-74
2023/12/15 05:21:56;;;;;;;11.95;6.90;;;;;;;6.87;100.00;103077.63;5034819;28;20041;-74
2023/12/15 05:24:22;;;;;;;8.13;6.78;;;;;;;6.87;100.00;103077.63;5034733;28;20053;-74
2023/12/15 05:26:47;;;;;;;12.52;6.72;;;;;;;6.88;100.00;103080.25;5034842;28;20033;-74
2023/12/15 05:29:12;;;;;;;13.07;7.07;;;;;;;6.89;100.00;103084.63;5034509;28;20437;-74
2023/12/15 05:31:38;;;;;;;7.85;6.43;;;;;;;6.90;100.00;103088.97;5033333;28;20037;-74
2023/12/15 05:34:03;;;;;;;9.07;6.60;;;;;;;6.89;100.00;103079.41;5032578;28;20107;-74
2023/12/15 05:36:29;;;;;;;13.48;7.50;;;;;;;6.88;100.00;103084.59;5033273;28;20045;-74
2023/12/15 05:38:54;;;;;;;10.63;6.90;;;;;;;6.89;100.00;103078.50;5033495;28;20079;-74
2023/12/15 05:41:19;;;;;;;9.00;6.30;;;;;;;6.89;100.00;103066.38;5033893;28;20305;-74
2023/12/15 05:43:45;;;;;;;12.30;7.40;;;;;;;6.87;100.00;103070.69;5014780;28;20198;-74
2023/12/15 05:46:10;;;;;;;10.13;6.57;;;;;;;6.85;100.00;103061.97;5033517;28;20198;-74
2023/12/15 05:48:36;;;;;;;12.60;6.80;;;;;;;6.84;100.00;103062.84;5016017;28;20051;-74
2023/12/15 05:51:02;;;;;;;7.63;6.25;;;;;;;6.85;100.00;103075.00;5034508;28;20328;-74
2023/12/15 05:53:28;;;;;;;19.65;8.02;;;;;;;6.83;100.00;103074.13;5033370;28;20066;-74
2023/12/15 05:55:53;;;;;;;25.70;9.18;;;;;;;6.82;100.00;103071.50;5034093;28;20069;-74
2023/12/15 05:58:19;;;;;;;14.13;7.95;;;;;;;6.84;100.00;103082.78;5033351;28;20044;-74
2023/12/15 06:00:45;;;;;;;15.80;7.53;;;;;;;6.83;100.00;103073.25;5033816;28;20231;-74
2023/12/15 06:03:10;;;;;;;14.70;7.72;;;;;;;6.84;100.00;103091.50;5029957;28;20063;-74
2023/12/15 06:05:36;;;;;;;12.02;6.97;;;;;;;6.85;100.00;103098.44;5033297;28;20318;-74
2023/12/15 06:08:02;;;;;;;15.80;7.47;;;;;;;6.85;100.00;103089.78;5033438;28;20329;-74
2023/12/15 06:10:27;;;;;;;14.52;7.55;;;;;;;6.86;100.00;103095.00;5033726;28;20238;-74
2023/12/15 06:12:53;;;;;;;18.48;7.00;;;;;;;6.85;100.00;103095.84;5034135;28;20041;-74
2023/12/15 06:15:18;;;;;;;10.02;6.82;;;;;;;6.89;100.00;103113.28;5033995;28;20124;-73
2023/12/15 06:17:43;;;;;;;10.68;6.30;;;;;;;6.91;100.00;103111.56;5033193;28;20167;-74
2023/12/15 06:20:10;;;;;;;8.93;6.18;;;;;;;6.91;100.00;103119.38;5033989;28;20431;-74
2023/12/15 06:22:36;;;;;;;9.48;6.15;;;;;;;6.92;100.00;103115.88;5033585;28;20025;-74
2023/12/15 06:25:01;;;;;;;10.93;6.25;;;;;;;6.94;100.00;103122.88;5033804;28;20355;-74
2023/12/15 06:27:26;;;;;;;12.65;5.97;;;;;;;6.95;100.00;103119.38;5033841;28;20037;-74
2023/12/15 06:29:52;;;;;;;8.73;5.50;;;;;;;6.95;100.00;103109.84;5033634;28;20040;-74
2023/12/15 06:32:17;;;;;;;12.30;5.57;;;;;;;6.95;100.00;103115.06;5033263;28;20056;-74
2023/12/15 06:34:43;;;;;;;19.58;7.40;;;;;;;6.91;100.00;103115.88;5031661;28;20317;-74
2023/12/15 06:37:08;;;;;;;12.25;6.30;;;;;;;6.94;100.00;103113.31;5033122;28;20303;-74
2023/12/15 06:39:33;;;;;;;13.18;6.60;;;;;;;6.95;100.00;103129.81;5032338;28;20030;-74
2023/12/15 06:41:59;;;;;;;9.40;5.93;;;;;;;6.95;100.00;103142.84;5031952;28;20345;-74
2023/12/15 06:44:24;;;;;;;12.07;6.32;;;;;;;6.96;100.00;103144.59;5029803;28;20030;-74
2023/12/15 06:46:50;;;;;;;11.25;5.38;;;;;;;6.96;100.00;103144.59;5030923;28;20045;-74
2023/12/15 06:49:18;;;;;;;7.25;5.10;;;;;;;6.98;100.00;103158.50;5033286;28;20064;-74
2023/12/15 06:51:44;;;;;;;14.85;6.47;;;;;;;6.96;100.00;103165.44;5033404;28;20249;-74
2023/12/15 06:54:09;;;;;;;21.88;6.72;;;;;;;6.91;100.00;103165.38;5033143;28;20041;-74
2023/12/15 06:56:38;;;;;;;20.25;6.53;;;;;;;6.91;100.00;103165.38;5033106;28;20356;-74
2023/12/15 06:59:03;;;;;;;23.95;7.18;;;;;;;6.89;100.00;103167.97;5031594;28;20030;-74
2023/12/15 07:01:29;;;;;;;19.67;7.85;;;;;;;6.89;100.00;103170.59;5032554;28;20084;-74
2023/12/15 07:03:54;;;;;;;22.30;9.02;;;;;;;6.90;100.00;103174.91;5031170;28;20025;-74
2023/12/15 07:06:19;;;;;;;39.97;12.68;;;;;;;6.89;100.00;103182.72;5030580;28;20041;-74
2023/12/15 07:08:48;;;;;;;26.95;10.85;;;;;;;6.89;100.00;103181.00;5035492;28;20040;-74
2023/12/15 07:11:13;;;;;;;;;;;;;;;6.94;100.00;103185.38;5030239;28;20057;-74
2023/12/15 07:13:39;;;;;;;15.13;9.23;;;;;;;6.96;100.00;103184.53;5032723;28;19913;-74
2023/12/15 07:16:05;;;;;;;17.88;10.38;;;;;;;6.96;100.00;103171.50;5036512;28;20304;-74
2023/12/15 07:18:32;;;;;;;18.42;11.52;;;;;;;6.98;100.00;103175.00;5036125;28;20033;-74
2023/12/15 07:20:58;;;;;;;18.13;12.05;;;;;;;6.97;100.00;103186.31;5036311;28;20037;-74
2023/12/15 07:23:23;;;;;;;22.40;13.13;;;;;;;6.97;100.00;103175.88;5037080;28;20107;-74
2023/12/15 07:25:48;;;;;;;46.88;20.98;;;;;;;6.93;100.00;103189.72;5036719;28;20059;-74
2023/12/15 07:28:14;;;;;;;42.17;19.27;;;;;;;6.90;100.00;103194.91;5037159;28;20040;-74
2023/12/15 07:30:39;;;;;;;28.13;13.95;;;;;;;6.90;100.00;103189.69;5035717;28;20190;-74
2023/12/15 07:33:05;;;;;;;27.20;10.23;;;;;;;6.88;100.00;103192.28;5031209;28;20056;-74
2023/12/15 07:35:30;;;;;;;20.95;9.48;;;;;;;6.90;100.00;103195.75;5034800;28;20438;-74
2023/12/15 07:37:56;;;;;;;29.88;9.48;;;;;;;6.95;100.00;103190.63;5034912;28;20037;-74
2023/12/15 07:40:22;;;;;;;15.15;9.25;;;;;;;6.98;100.00;103198.44;5035478;28;20044;-74
2023/12/15 07:42:47;;;;;;;13.50;9.15;;;;;;;6.98;100.00;103208.88;5034169;28;20029;-74
2023/12/15 07:45:13;;;;;;;11.48;8.52;;;;;;;6.99;100.00;103210.63;5017235;28;20048;-74
2023/12/15 07:47:38;;;;;;;22.98;7.95;;;;;;;6.96;100.00;103212.31;5034663;28;20033;-74
2023/12/15 07:50:04;;;;;;;16.95;7.30;;;;;;;6.99;100.00;103209.78;5036570;28;20517;-74
2023/12/15 07:52:29;;;;;;;15.50;6.88;;;;;;;7.00;100.00;103221.91;5035095;28;20132;-74
2023/12/15 07:54:54;;;;;;;11.02;6.10;;;;;;;6.99;100.00;103226.28;5035509;28;20045;-74
2023/12/15 07:57:20;;;;;;;21.10;6.10;;;;;;;6.94;100.00;103235.75;5035243;28;20072;-74
2023/12/15 07:59:46;;;;;;;16.52;6.18;;;;;;;6.98;100.00;103241.88;5035779;28;20232;-74
2023/12/15 08:02:11;;;;;;;14.52;5.90;;;;;;;7.00;100.00;103246.25;5035364;28;20041;-74
2023/12/15 08:04:37;;;;;;;9.85;5.18;;;;;;;7.03;100.00;103261.06;5037873;28;20099;-74
2023/12/15 08:07:03;;;;;;;11.30;4.78;;;;;;;7.04;100.00;103255.88;5056299;28;20107;-74
2023/12/15 08:09:28;;;;;;;7.25;4.40;;;;;;;7.05;100.00;103265.41;5055269;28;20232;-74
2023/12/15 08:11:54;;;;;;;5.22;3.78;;;;;;;7.07;100.00;103257.63;5055529;28;20044;-74
2023/12/15 08:14:19;;;;;;;13.48;4.55;;;;;;;7.03;100.00;103268.88;5055079;28;20227;-74
2023/12/15 08:16:45;;;;;;;21.15;4.93;;;;;;;7.01;100.00;103268.84;5054326;28;20029;-74
2023/12/15 08:19:10;;;;;;;18.27;5.20;;;;;;;6.98;100.00;103270.53;5053824;28;20033;-74
2023/12/15 08:21:35;;;;;;;26.13;5.10;;;;;;;6.99;100.00;103278.38;5055119;28;20040;-74
2023/12/15 08:24:01;;;;;;;28.48;5.57;;;;;;;6.98;100.00;103275.75;5055695;28;20104;-74
2023/12/15 08:26:27;;;;;;;25.83;5.55;;;;;;;7.01;100.00;103278.41;5056083;28;20274;-74
2023/12/15 08:28:53;;;;;;;14.15;4.95;;;;;;;7.01;100.00;103286.22;5056435;28;20025;-74
2023/12/15 08:31:20;;;;;;;15.50;4.70;;;;;;;7.04;100.00;103294.94;5055929;28;20064;-74
2023/12/15 08:33:45;;;;;;;18.15;4.65;;;;;;;7.04;100.00;103294.94;5055889;28;20323;-74
2023/12/15 08:36:11;;;;;;;17.77;5.22;;;;;;;7.00;100.00;103303.56;5055657;28;20391;-74
2023/12/15 08:38:36;;;;;;;19.38;4.90;;;;;;;6.97;100.00;103303.53;5055717;28;20065;-74
2023/12/15 08:41:03;;;;;;;27.38;5.15;;;;;;;6.93;100.00;103312.19;5055968;28;20032;-73
2023/12/15 08:43:28;;;;;;;16.52;4.32;;;;;;;6.93;100.00;103309.56;5055845;28;20048;-73
2023/12/15 08:45:53;;;;;;;17.48;4.88;;;;;;;6.96;100.00;103316.53;5056131;28;20211;-74
2023/12/15 08:48:19;;;;;;;13.57;4.70;;;;;;;7.01;100.00;103317.47;5047975;28;20094;-74
2023/12/15 08:50:44;;;;;;;10.40;4.15;;;;;;;7.06;100.00;103321.03;5035256;28;20384;-74
2023/12/15 08:53:12;;;;;;;11.85;3.78;;;;;;;7.09;100.00;103329.78;5035349;28;20088;-74
2023/12/15 08:55:37;;;;;;;9.10;3.90;;;;;;;7.11;100.00;103324.56;5035625;28;20033;-74
2023/12/15 08:58:03;;;;;;;12.82;4.68;;;;;;;7.10;100.00;103328.03;5035813;28;20340;-74
2023/12/15 09:00:28;;;;;;;14.65;5.00;;;;;;;7.09;100.00;103342.81;5035100;28;20052;-74
2023/12/15 09:02:54;;;;;;;12.70;4.40;;;;;;;7.12;100.00;103339.34;5035321;28;20255;-74
2023/12/15 09:05:23;;;;;;;21.58;4.93;;;;;;;7.13;100.00;103337.59;5034946;28;20283;-74
2023/12/15 09:07:52;;;;;;;13.27;4.40;;;;;;;7.15;100.00;103344.63;5034463;28;20029;-74
2023/12/15 09:10:18;;;;;;;21.17;4.82;;;;;;;7.10;100.00;103354.97;5035079;28;20040;-74
2023/12/15 09:12:44;;;;;;;19.13;5.03;;;;;;;7.08;100.00;103366.22;5034926;28;20126;-74
2023/12/15 09:15:10;;;;;;;14.52;3.55;;;;;;;7.10;100.00;103359.31;5032172;28;20025;-74
2023/12/15 09:17:35;;;;;;;9.85;3.72;;;;;;;7.16;100.00;103363.72;5034635;28;20044;-74
2023/12/15 09:20:03;;;;;;;8.10;3.53;;;;;;;7.18;100.00;103380.25;5034615;28;20025;-74
2023/12/15 09:22:29;;;;;;;14.18;3.80;;;;;;;7.20;100.00;103378.53;5034613;28;20300;-74
2023/12/15 09:24:54;;;;;;;8.27;3.22;;;;;;;7.25;100.00;103392.53;5034919;28;20089;-74
2023/12/15 09:27:20;;;;;;;5.47;3.13;;;;;;;7.25;100.00;103397.72;5034593;28;20038;-74
2023/12/15 09:29:45;;;;;;;6.80;3.17;;;;;;;7.25;100.00;103401.22;5034454;28;20474;-73
2023/12/15 09:32:11;;;;;;;9.43;2.80;;;;;;;7.24;100.00;103409.91;5027791;28;20048;-74
2023/12/15 09:34:36;;;;;;;7.82;3.15;;;;;;;7.26;100.00;103409.94;5040670;28;20037;-73
2023/12/15 09:37:02;;;;;;;10.90;3.22;;;;;;;7.25;100.00;103410.75;5037410;28;20099;-73
2023/12/15 09:39:27;;;;;;;6.65;3.22;;;;;;;7.27;100.00;103414.25;5045013;28;20025;-74
2023/12/15 09:41:52;;;;;;;7.20;3.20;;;;;;;7.28;100.00;103416.03;5044324;28;20035;-74
2023/12/15 09:44:19;;;;;;;11.38;3.65;;;;;;;7.29;100.00;103425.59;5039695;28;20036;-73
2023/12/15 09:46:45;;;;;;;5.75;2.83;;;;;;;7.30;100.00;103423.00;5033781;28;20305;-73
2023/12/15 09:49:18;;;;;;;12.05;3.28;;;;;;;7.32;100.00;103435.19;5033256;28;20040;-73
2023/12/15 09:51:49;;;;;;;7.30;3.13;;;;;;;7.30;100.00;103437.78;5033721;28;20033;-73
2023/12/15 09:54:16;;;;;;;13.23;3.45;;;;;;;7.33;100.00;103455.19;5041641;28;20315;-73
2023/12/15 09:56:42;;;;;;;11.02;3.40;;;;;;;7.30;100.00;103456.91;5041992;28;20036;-73
2023/12/15 09:59:07;;;;;;;8.52;3.22;;;;;;;7.33;100.00;103463.91;5035553;28;20352;-73
2023/12/15 10:01:33;;;;;;;12.73;3.90;;;;;;;7.34;100.00;103473.47;5040392;28;20112;-74
2023/12/15 10:03:58;;;;;;;14.45;3.42;;;;;;;7.30;100.00;103479.50;5043264;28;20029;-74
2023/12/15 10:06:24;;;;;;;8.75;3.10;;;;;;;7.34;100.00;103485.63;5035142;28;20316;-74
2023/12/15 10:08:50;;;;;;;10.98;3.10;;;;;;;7.37;100.00;103485.66;5028259;28;20033;-74
2023/12/15 10:11:18;;;;;;;15.68;3.33;;;;;;;7.37;100.00;103483.03;5030518;28;20303;-73
2023/12/15 10:13:44;;;;;;;14.02;3.58;;;;;;;7.38;100.00;103483.06;5029617;28;20041;-73
2023/12/15 10:16:10;;;;;;;10.05;2.65;;;;;;;7.40;100.00;103489.19;5029969;28;20037;-73
2023/12/15 10:18:37;;;;;;;13.40;3.40;;;;;;;7.40;100.00;103499.59;5029578;28;20217;-73
2023/12/15 10:21:04;;;;;;;12.30;3.15;;;;;;;7.39;100.00;103494.41;5030062;28;20041;-73
2023/12/15 10:23:30;;;;;;;10.63;2.95;;;;;;;7.40;100.00;103489.19;5029640;28;20271;-73
2023/12/15 10:26:00;;;;;;;11.25;3.20;;;;;;;7.41;100.00;103496.16;5029977;28;20037;-74
2023/12/15 10:28:25;;;;;;;12.32;3.15;;;;;;;7.40;100.00;103504.81;5030368;28;20080;-74
2023/12/15 10:30:51;;;;;;;19.80;3.47;;;;;;;7.38;100.00;103514.34;5029088;28;20037;-73
2023/12/15 10:33:21;;;;;;;13.35;3.40;;;;;;;7.37;100.00;103520.44;5029115;28;20072;-73
2023/12/15 10:35:50;;;;;;;16.45;2.90;;;;;;;7.39;100.00;103520.47;5029035;28;20036;-73
2023/12/15 10:38:15;;;;;;;12.85;2.83;;;;;;;7.40;100.00;103507.44;5029054;28;20348;-74
2023/12/15 10:40:44;;;;;;;12.40;2.75;;;;;;;7.43;100.00;103514.44;5029288;28;20104;-73
2023/12/15 10:43:10;;;;;;;17.17;3.13;;;;;;;7.43;100.00;103525.75;5031363;28;20091;-73
2023/12/15 10:45:37;;;;;;;16.50;3.10;;;;;;;7.42;100.00;103525.72;5033977;28;20583;-73
2023/12/15 10:48:03;;;;;;;10.57;2.38;;;;;;;7.44;100.00;103535.34;5033196;28;20045;-73
2023/12/15 10:50:29;;;;;;;10.93;2.85;;;;;;;7.47;100.00;103540.56;5033080;28;20044;-73
2023/12/15 10:52:56;;;;;;;10.63;2.47;;;;;;;7.48;100.00;103538.88;5034143;28;20324;-73
2023/12/15 10:55:23;;;;;;;8.27;2.50;;;;;;;7.50;100.00;103544.97;5033759;28;20374;-73
2023/12/15 10:57:49;;;;;;;6.05;1.90;;;;;;;7.50;100.00;103540.63;5033083;28;20082;-73
2023/12/15 11:00:17;;;;;;;8.77;1.98;;;;;;;7.53;100.00;103547.63;5033336;28;20065;-73
2023/12/15 11:02:45;;;;;;;11.23;2.75;;;;;;;7.53;100.00;103541.53;5032960;28;20170;-73
2023/12/15 11:05:11;;;;;;;7.40;2.10;;;;;;;7.54;100.00;103548.50;5034441;28;20045;-73
2023/12/15 11:07:39;;;;;;;6.60;1.75;;;;;;;7.56;100.00;103552.88;5033295;28;20104;-73